createdAt,value
2023-04-08T00:01:34.097Z,34.53
2023-04-08T00:04:00.949Z,35.57
2023-04-08T00:06:28.106Z,37.67
2023-04-08T00:08:54.876Z,37.20
2023-04-08T00:11:31.099Z,34.47
2023-04-08T00:13:57.860Z,37.83
2023-04-08T00:16:24.676Z,31.83
2023-04-08T00:18:52.262Z,39.87
2023-04-08T00:21:20.934Z,35.13
2023-04-08T00:23:47.900Z,38.93
2023-04-08T00:26:26.237Z,39.90
2023-04-08T00:28:53.004Z,35.77
2023-04-08T00:31:19.886Z,32.43
2023-04-08T00:33:50.397Z,34.10
2023-04-08T00:36:17.700Z,39.57
2023-04-08T00:38:47.061Z,34.40
2023-04-08T00:41:13.942Z,36.77
2023-04-08T00:43:41.040Z,36.73
2023-04-08T00:46:07.978Z,39.57
2023-04-08T00:48:34.825Z,33.60
2023-04-08T00:51:02.164Z,38.77
2023-04-08T00:53:31.364Z,35.07
2023-04-08T00:55:59.984Z,39.43
2023-04-08T00:58:27.093Z,36.73
2023-04-08T01:01:15.745Z,35.00
2023-04-08T01:04:15.416Z,38.13
2023-04-08T01:06:54.986Z,40.60
2023-04-08T01:09:25.361Z,35.13
2023-04-08T01:11:53.808Z,37.50
2023-04-08T01:14:23.873Z,37.73
2023-04-08T01:16:50.860Z,42.07
2023-04-08T01:19:34.505Z,35.93
2023-04-08T01:22:19.842Z,43.63
2023-04-08T01:24:49.278Z,41.87
2023-04-08T01:27:17.563Z,40.23
2023-04-08T01:29:45.730Z,40.93
2023-04-08T01:32:13.697Z,40.53
2023-04-08T01:34:41.740Z,38.53
2023-04-08T01:37:08.800Z,45.20
2023-04-08T01:39:36.857Z,47.00
2023-04-08T01:42:04.705Z,47.23
2023-04-08T01:44:33.555Z,45.57
2023-04-08T01:47:03.935Z,53.73
2023-04-08T01:49:33.428Z,45.27
2023-04-08T01:52:01.588Z,46.83
2023-04-08T01:54:28.396Z,45.10
2023-04-08T01:56:59.678Z,43.07
2023-04-08T01:59:29.801Z,44.30
2023-04-08T02:01:57.419Z,42.80
2023-04-08T02:04:24.318Z,41.43
2023-04-08T02:06:51.218Z,45.37
2023-04-08T02:09:17.953Z,44.40
2023-04-08T02:11:47.036Z,45.83
2023-04-08T02:14:13.963Z,46.97
2023-04-08T02:16:49.265Z,45.20
2023-04-08T02:19:22.814Z,44.57
2023-04-08T02:21:58.491Z,40.20
2023-04-08T02:24:27.128Z,45.13
2023-04-08T02:26:56.617Z,46.77
2023-04-08T02:29:24.572Z,48.20
2023-04-08T02:31:52.835Z,45.07
2023-04-08T02:34:22.234Z,45.10
2023-04-08T02:36:51.081Z,48.30
2023-04-08T02:39:18.107Z,44.33
2023-04-08T02:41:44.790Z,43.17
2023-04-08T02:44:11.483Z,47.40
2023-04-08T02:46:38.295Z,44.37
2023-04-08T02:49:05.671Z,43.37
2023-04-08T02:51:33.273Z,49.70
2023-04-08T02:54:00.004Z,46.23
2023-04-08T02:56:26.821Z,43.60
2023-04-08T02:58:53.636Z,50.50
2023-04-08T03:01:20.640Z,43.67
2023-04-08T03:03:47.403Z,44.57
2023-04-08T03:06:17.234Z,46.70
2023-04-08T03:08:44.406Z,48.53
2023-04-08T03:11:11.367Z,41.70
2023-04-08T03:13:38.090Z,45.93
2023-04-08T03:16:05.182Z,41.63
2023-04-08T03:18:31.892Z,44.33
2023-04-08T03:20:58.610Z,43.97
2023-04-08T03:23:25.403Z,46.87
2023-04-08T03:25:52.089Z,42.33
2023-04-08T03:28:18.831Z,43.87
2023-04-08T03:30:45.879Z,40.23
2023-04-08T03:33:15.814Z,40.63
2023-04-08T03:35:42.591Z,43.77
2023-04-08T03:38:09.374Z,46.60
2023-04-08T03:40:39.106Z,43.80
2023-04-08T03:43:08.749Z,44.20
2023-04-08T03:45:38.414Z,39.63
2023-04-08T03:48:05.477Z,45.70
2023-04-08T03:50:32.257Z,48.60
2023-04-08T03:52:58.984Z,43.70
2023-04-08T03:55:28.408Z,45.10
2023-04-08T03:57:55.701Z,45.33
2023-04-08T04:00:22.655Z,42.33
2023-04-08T04:02:50.093Z,42.90
2023-04-08T04:05:16.874Z,39.17
2023-04-08T04:07:43.652Z,39.23
2023-04-08T04:10:11.022Z,42.53
2023-04-08T04:12:37.764Z,42.67
2023-04-08T04:15:05.084Z,43.13
2023-04-08T04:17:31.857Z,41.13
2023-04-08T04:19:58.574Z,41.00
2023-04-08T04:22:25.329Z,40.30
2023-04-08T04:24:52.043Z,43.00
2023-04-08T04:27:18.718Z,39.83
2023-04-08T04:29:45.631Z,44.17
2023-04-08T04:32:12.336Z,38.53
2023-04-08T04:34:39.097Z,42.10
2023-04-08T04:37:06.309Z,44.50
2023-04-08T04:39:33.021Z,39.57
2023-04-08T04:42:01.800Z,39.97
2023-04-08T04:44:28.563Z,41.87
2023-04-08T04:46:55.347Z,43.73
2023-04-08T04:49:22.137Z,46.10
2023-04-08T04:51:49.312Z,52.67
2023-04-08T04:54:16.119Z,45.07
2023-04-08T04:56:42.845Z,72.23
2023-04-08T04:59:09.923Z,58.90
2023-04-08T05:01:36.782Z,78.90
2023-04-08T05:04:03.698Z,73.10
2023-04-08T05:06:30.980Z,100.37
2023-04-08T05:08:57.675Z,78.90
2023-04-08T05:11:24.520Z,112.50
2023-04-08T05:13:51.402Z,50.47
2023-04-08T05:16:18.297Z,55.50
2023-04-08T05:18:45.269Z,77.73
2023-04-08T05:21:12.012Z,57.37
2023-04-08T05:23:38.780Z,71.57
2023-04-08T05:26:08.863Z,50.87
2023-04-08T05:28:36.046Z,63.57
2023-04-08T05:31:02.777Z,70.77
2023-04-08T05:33:32.780Z,63.20
2023-04-08T05:35:59.808Z,111.27
2023-04-08T05:38:26.597Z,105.63
2023-04-08T05:40:53.398Z,69.90
2023-04-08T05:43:20.192Z,60.43
2023-04-08T05:45:46.919Z,100.70
2023-04-08T05:48:16.726Z,66.67
2023-04-08T05:50:43.481Z,38.20
2023-04-08T05:53:10.845Z,59.07
2023-04-08T05:55:37.531Z,71.10
2023-04-08T05:58:04.250Z,56.33
2023-04-08T06:00:31.414Z,68.30
2023-04-08T06:03:01.443Z,57.83
2023-04-08T06:05:28.637Z,49.50
2023-04-08T06:07:55.626Z,59.23
2023-04-08T06:10:22.313Z,44.47
2023-04-08T06:12:51.254Z,51.27
2023-04-08T06:15:18.510Z,56.27
2023-04-08T06:17:45.211Z,50.73
2023-04-08T06:20:17.110Z,58.87
2023-04-08T06:22:43.917Z,41.93
2023-04-08T06:25:10.668Z,47.63
2023-04-08T06:27:40.680Z,41.73
2023-04-08T06:30:08.158Z,47.30
2023-04-08T06:32:34.852Z,49.43
2023-04-08T06:35:01.800Z,47.77
2023-04-08T06:37:28.608Z,61.43
2023-04-08T06:39:55.488Z,40.10
2023-04-08T06:42:23.164Z,37.50
2023-04-08T06:44:50.058Z,34.63
2023-04-08T06:47:17.364Z,31.60
2023-04-08T06:49:44.069Z,28.10
2023-04-08T06:52:11.774Z,27.27
2023-04-08T06:54:39.918Z,32.77
2023-04-08T06:57:07.091Z,31.87
2023-04-08T06:59:33.962Z,33.23
2023-04-08T07:02:01.435Z,35.43
2023-04-08T07:04:28.379Z,38.40
2023-04-08T07:06:55.047Z,40.80
2023-04-08T07:09:21.846Z,74.20
2023-04-08T07:11:48.846Z,37.03
2023-04-08T07:14:15.940Z,33.67
2023-04-08T07:16:42.873Z,65.90
2023-04-08T07:19:12.085Z,30.37
2023-04-08T07:21:39.242Z,31.47
2023-04-08T07:24:06.254Z,32.80
2023-04-08T07:26:35.335Z,50.70
2023-04-08T07:29:02.212Z,38.67
2023-04-08T07:31:29.069Z,33.77
2023-04-08T07:33:56.093Z,35.70
2023-04-08T07:36:22.815Z,29.80
2023-04-08T07:38:52.544Z,28.10
2023-04-08T07:41:19.486Z,31.07
2023-04-08T07:43:49.178Z,38.57
2023-04-08T07:46:16.124Z,29.90
2023-04-08T07:48:42.966Z,37.03
2023-04-08T07:51:11.392Z,32.70
2023-04-08T07:53:39.539Z,24.40
2023-04-08T07:56:18.265Z,37.00
2023-04-08T07:58:47.014Z,36.90
2023-04-08T08:01:19.022Z,22.97
2023-04-08T08:03:47.655Z,19.67
2023-04-08T08:06:15.339Z,25.87
2023-04-08T08:08:42.310Z,22.17
2023-04-08T08:11:09.452Z,21.13
2023-04-08T08:13:38.540Z,22.27
2023-04-08T08:16:09.173Z,24.97
2023-04-08T08:18:36.909Z,22.27
2023-04-08T08:21:04.153Z,24.03
2023-04-08T08:23:30.939Z,23.00
2023-04-08T08:26:06.421Z,22.70
2023-04-08T08:28:33.667Z,23.23
2023-04-08T08:31:01.846Z,24.30
2023-04-08T08:33:28.549Z,26.73
2023-04-08T08:35:56.088Z,21.83
2023-04-08T08:38:22.978Z,24.27
2023-04-08T08:40:57.531Z,25.03
2023-04-08T08:43:29.137Z,24.07
2023-04-08T08:45:55.846Z,20.53
2023-04-08T08:48:24.746Z,28.97
2023-04-08T08:50:51.638Z,23.97
2023-04-08T08:53:19.744Z,23.27
2023-04-08T08:56:13.710Z,23.77
2023-04-08T08:58:33.478Z,22.47
2023-04-08T09:01:00.476Z,23.70
2023-04-08T09:03:28.763Z,23.33
2023-04-08T09:06:01.107Z,23.17
2023-04-08T09:08:35.590Z,22.93
2023-04-08T09:11:22.359Z,23.87
2023-04-08T09:13:49.610Z,23.43
2023-04-08T09:16:18.725Z,23.77
2023-04-08T09:18:48.641Z,23.60
2023-04-08T09:21:19.620Z,22.47
2023-04-08T09:23:53.051Z,24.37
2023-04-08T09:26:24.629Z,24.27
2023-04-08T09:29:24.405Z,25.47
2023-04-08T09:31:59.935Z,25.50
2023-04-08T09:34:29.736Z,24.43
2023-04-08T09:36:56.989Z,25.40
2023-04-08T09:39:24.272Z,26.47
2023-04-08T09:41:53.001Z,24.57
2023-04-08T09:44:21.764Z,24.10
2023-04-08T09:46:51.762Z,25.97
2023-04-08T09:49:27.902Z,24.67
2023-04-08T09:52:33.409Z,28.00
2023-04-08T09:55:02.149Z,24.10
2023-04-08T09:57:43.538Z,24.20
2023-04-08T10:00:15.512Z,24.83
2023-04-08T10:03:14.995Z,25.77
2023-04-08T10:05:43.709Z,26.67
2023-04-08T10:08:10.730Z,24.30
2023-04-08T10:10:40.759Z,23.93
2023-04-08T10:13:08.199Z,24.43
2023-04-08T10:15:37.587Z,24.90
2023-04-08T10:18:04.812Z,26.93
2023-04-08T10:20:38.419Z,24.23
2023-04-08T10:23:13.872Z,26.63
2023-04-08T10:25:50.107Z,26.27
2023-04-08T10:28:22.609Z,23.47
2023-04-08T10:30:52.601Z,25.70
2023-04-08T10:33:21.973Z,29.83
2023-04-08T10:36:12.557Z,27.93
2023-04-08T10:38:39.693Z,24.43
2023-04-08T10:41:06.432Z,24.40
2023-04-08T10:43:36.858Z,26.27
2023-04-08T10:46:04.962Z,24.83
2023-04-08T10:48:31.948Z,24.20
2023-04-08T10:51:02.487Z,21.57
2023-04-08T10:53:31.278Z,23.23
2023-04-08T10:56:18.315Z,22.90
2023-04-08T10:58:59.130Z,23.07
2023-04-08T11:01:26.564Z,21.43
2023-04-08T11:03:53.879Z,22.53
2023-04-08T11:06:20.924Z,23.57
2023-04-08T11:08:47.757Z,23.67
2023-04-08T11:11:15.437Z,20.83
2023-04-08T11:13:52.914Z,18.90
2023-04-08T11:16:22.751Z,22.37
2023-04-08T11:18:51.230Z,20.13
2023-04-08T11:21:18.226Z,22.47
2023-04-08T11:23:45.270Z,19.07
2023-04-08T11:26:12.307Z,21.50
2023-04-08T11:28:39.221Z,19.43
2023-04-08T11:31:09.240Z,18.50
2023-04-08T11:33:36.357Z,19.37
2023-04-08T11:36:08.560Z,18.23
2023-04-08T11:38:40.701Z,19.13
2023-04-08T11:41:07.610Z,18.80
2023-04-08T11:43:36.587Z,28.20
2023-04-08T11:46:13.109Z,17.57
2023-04-08T11:48:40.037Z,20.53
2023-04-08T11:51:09.282Z,16.40
2023-04-08T11:53:37.853Z,18.20
2023-04-08T11:56:22.322Z,17.47
2023-04-08T11:58:50.025Z,19.03
2023-04-08T12:01:16.790Z,16.73
2023-04-08T12:04:04.003Z,16.57
2023-04-08T12:06:31.731Z,17.33
2023-04-08T12:08:59.773Z,18.07
2023-04-08T12:11:26.813Z,16.37
2023-04-08T12:13:53.777Z,14.97
2023-04-08T12:16:21.301Z,19.80
2023-04-08T12:18:48.395Z,18.80
2023-04-08T12:21:15.450Z,17.67
2023-04-08T12:23:42.447Z,17.63
2023-04-08T12:26:09.790Z,17.30
2023-04-08T12:28:36.647Z,16.13
2023-04-08T12:31:04.202Z,15.90
2023-04-08T12:33:31.447Z,16.63
2023-04-08T12:35:59.308Z,16.27
2023-04-08T12:38:27.102Z,15.27
2023-04-08T12:40:54.698Z,17.37
2023-04-08T12:43:22.105Z,18.40
2023-04-08T12:45:49.081Z,16.33
2023-04-08T12:48:15.981Z,17.17
2023-04-08T12:50:42.796Z,18.07
2023-04-08T12:53:09.649Z,16.80
2023-04-08T12:55:36.444Z,16.43
2023-04-08T12:58:03.184Z,15.60
2023-04-08T13:00:30.191Z,16.40
2023-04-08T13:02:57.098Z,15.77
2023-04-08T13:05:39.619Z,14.23
2023-04-08T13:08:09.982Z,14.60
2023-04-08T13:10:36.710Z,16.87
2023-04-08T13:13:03.627Z,16.27
2023-04-08T13:15:30.554Z,15.57
2023-04-08T13:17:57.288Z,14.87
2023-04-08T13:20:26.028Z,14.13
2023-04-08T13:22:53.357Z,13.27
2023-04-08T13:25:20.493Z,16.40
2023-04-08T13:27:47.326Z,13.43
2023-04-08T13:30:20.853Z,13.73
2023-04-08T13:32:47.899Z,15.43
2023-04-08T13:35:17.488Z,12.17
2023-04-08T13:37:44.272Z,12.77
2023-04-08T13:40:12.197Z,13.60
2023-04-08T13:42:39.219Z,11.63
2023-04-08T13:45:06.642Z,13.77
2023-04-08T13:47:34.271Z,13.93
2023-04-08T13:50:02.772Z,13.87
2023-04-08T13:52:29.462Z,12.90
2023-04-08T13:54:56.416Z,11.27
2023-04-08T13:57:23.247Z,12.23
2023-04-08T13:59:49.968Z,13.17
2023-04-08T14:02:16.966Z,13.93
2023-04-08T14:04:45.933Z,13.50
2023-04-08T14:07:16.978Z,14.20
2023-04-08T14:09:52.785Z,13.23
2023-04-08T14:12:19.496Z,16.73
2023-04-08T14:14:46.293Z,13.73
2023-04-08T14:17:13.093Z,13.33
2023-04-08T14:19:39.996Z,12.10
2023-04-08T14:22:06.972Z,11.73
2023-04-08T14:24:39.908Z,11.67
2023-04-08T14:27:06.662Z,12.47
2023-04-08T14:29:33.334Z,11.00
2023-04-08T14:32:00.455Z,15.10
2023-04-08T14:34:27.702Z,13.60
2023-04-08T14:36:54.447Z,10.20
2023-04-08T14:39:21.717Z,12.53
2023-04-08T14:41:48.444Z,12.13
2023-04-08T14:44:15.292Z,12.30
2023-04-08T14:46:42.216Z,12.67
2023-04-08T14:49:08.950Z,13.30
2023-04-08T14:51:37.824Z,11.20
2023-04-08T14:54:04.702Z,13.10
2023-04-08T14:56:31.544Z,9.90
2023-04-08T14:58:58.808Z,11.03
2023-04-08T15:01:25.567Z,13.17
2023-04-08T15:03:52.340Z,13.97
2023-04-08T15:06:21.703Z,10.33
2023-04-08T15:08:51.313Z,9.50
2023-04-08T15:11:20.915Z,11.13
2023-04-08T15:13:48.651Z,16.67
2023-04-08T15:16:18.809Z,10.53
2023-04-08T15:18:45.614Z,10.47
2023-04-08T15:21:12.551Z,10.57
2023-04-08T15:23:42.091Z,10.13
2023-04-08T15:26:10.022Z,21.40
2023-04-08T15:28:38.110Z,12.00
2023-04-08T15:31:07.713Z,11.33
2023-04-08T15:33:35.034Z,11.60
2023-04-08T15:36:04.488Z,12.80
2023-04-08T15:38:33.516Z,13.40
2023-04-08T15:41:01.379Z,11.40
2023-04-08T15:43:31.477Z,10.60
2023-04-08T15:45:58.376Z,12.73
2023-04-08T15:48:28.262Z,9.33
2023-04-08T15:50:57.835Z,11.67
2023-04-08T15:53:24.756Z,12.87
2023-04-08T15:55:51.652Z,10.40
2023-04-08T15:58:18.460Z,9.13
2023-04-08T16:00:45.266Z,10.30
2023-04-08T16:03:12.902Z,12.47
2023-04-08T16:05:41.572Z,14.93
2023-04-08T16:08:08.709Z,11.30
2023-04-08T16:10:35.518Z,9.87
2023-04-08T16:13:02.918Z,8.57
2023-04-08T16:15:29.657Z,8.13
2023-04-08T16:17:56.467Z,8.37
2023-04-08T16:20:23.195Z,7.70
2023-04-08T16:22:50.438Z,9.53
2023-04-08T16:25:17.480Z,10.10
2023-04-08T16:27:44.276Z,7.93
2023-04-08T16:30:11.485Z,9.80
2023-04-08T16:32:38.246Z,8.47
2023-04-08T16:35:05.595Z,10.37
2023-04-08T16:37:33.403Z,8.40
2023-04-08T16:40:00.815Z,8.67
2023-04-08T16:42:27.594Z,8.40
2023-04-08T16:44:58.044Z,11.47
2023-04-08T16:47:25.691Z,9.67
2023-04-08T16:49:53.062Z,12.37
2023-04-08T16:52:21.081Z,11.97
2023-04-08T16:54:48.225Z,10.90
2023-04-08T16:57:15.066Z,8.17
2023-04-08T16:59:42.302Z,13.00
2023-04-08T17:02:09.383Z,10.40
2023-04-08T17:04:36.193Z,12.23
2023-04-08T17:07:03.392Z,9.87
2023-04-08T17:09:31.245Z,10.33
2023-04-08T17:11:58.112Z,9.57
2023-04-08T17:14:24.942Z,9.37
2023-04-08T17:16:51.836Z,11.27
2023-04-08T17:19:18.811Z,11.87
2023-04-08T17:21:46.256Z,9.60
2023-04-08T17:24:14.221Z,10.80
2023-04-08T17:26:44.908Z,11.33
2023-04-08T17:29:12.275Z,11.07
2023-04-08T17:31:42.145Z,12.00
2023-04-08T17:34:09.077Z,11.83
2023-04-08T17:36:35.911Z,11.60
2023-04-08T17:39:02.662Z,12.23
2023-04-08T17:41:38.840Z,13.33
2023-04-08T17:44:06.955Z,12.40
2023-04-08T17:46:33.773Z,13.60
2023-04-08T17:49:00.571Z,12.00
2023-04-08T17:51:27.962Z,11.20
2023-04-08T17:53:54.989Z,13.37
2023-04-08T17:56:24.375Z,13.70
2023-04-08T17:58:51.610Z,13.87
2023-04-08T18:01:22.636Z,13.03
2023-04-08T18:03:53.226Z,13.07
2023-04-08T18:06:20.309Z,15.30
2023-04-08T18:08:46.996Z,17.30
2023-04-08T18:11:13.973Z,13.87
2023-04-08T18:13:40.782Z,15.57
2023-04-08T18:16:16.627Z,15.00
2023-04-08T18:18:43.382Z,14.13
2023-04-08T18:21:10.359Z,12.83
2023-04-08T18:23:37.671Z,15.20
2023-04-08T18:26:04.567Z,17.63
2023-04-08T18:28:31.547Z,15.37
2023-04-08T18:30:58.391Z,14.37
2023-04-08T18:33:25.491Z,17.27
2023-04-08T18:35:52.775Z,18.47
2023-04-08T18:38:19.652Z,15.60
2023-04-08T18:40:46.763Z,18.17
2023-04-08T18:43:16.072Z,16.30
2023-04-08T18:45:42.946Z,16.97
2023-04-08T18:48:09.820Z,18.23
2023-04-08T18:50:36.934Z,17.00
2023-04-08T18:53:03.672Z,19.37
2023-04-08T18:55:32.808Z,15.33
2023-04-08T18:57:59.508Z,16.67
2023-04-08T19:00:29.056Z,18.73
2023-04-08T19:02:56.879Z,16.07
2023-04-08T19:05:23.801Z,18.97
2023-04-08T19:07:50.587Z,17.07
2023-04-08T19:10:17.383Z,18.20
2023-04-08T19:12:44.169Z,17.90
2023-04-08T19:15:11.330Z,18.33
2023-04-08T19:17:38.057Z,18.50
2023-04-08T19:20:08.415Z,18.43
2023-04-08T19:22:35.118Z,16.90
2023-04-08T19:25:01.875Z,18.37
2023-04-08T19:27:28.660Z,19.10
2023-04-08T19:29:55.367Z,18.83
2023-04-08T19:32:25.166Z,19.23
2023-04-08T19:34:52.153Z,20.53
2023-04-08T19:37:19.049Z,18.10
2023-04-08T19:39:46.245Z,18.67
2023-04-08T19:42:13.555Z,23.90
2023-04-08T19:44:40.301Z,19.97
2023-04-08T19:47:06.975Z,23.17
2023-04-08T19:49:36.545Z,18.90
2023-04-08T19:52:03.338Z,21.47
2023-04-08T19:54:30.221Z,20.77
2023-04-08T19:56:58.539Z,21.73
2023-04-08T19:59:25.913Z,21.60
2023-04-08T20:01:52.739Z,24.23
2023-04-08T20:04:19.559Z,23.53
2023-04-08T20:06:50.479Z,20.23
2023-04-08T20:09:17.153Z,24.00
2023-04-08T20:11:43.879Z,23.97
2023-04-08T20:14:10.947Z,21.33
2023-04-08T20:16:37.694Z,21.07
2023-04-08T20:19:04.395Z,24.37
2023-04-08T20:21:33.231Z,21.97
2023-04-08T20:23:59.941Z,20.83
2023-04-08T20:26:26.760Z,21.10
2023-04-08T20:28:56.277Z,21.90
2023-04-08T20:31:24.738Z,21.50
2023-04-08T20:33:51.536Z,19.67
2023-04-08T20:36:18.268Z,22.07
2023-04-08T20:38:45.109Z,20.87
2023-04-08T20:41:12.055Z,24.80
2023-04-08T20:43:39.554Z,20.17
2023-04-08T20:46:06.491Z,22.90
2023-04-08T20:48:33.326Z,19.03
2023-04-08T20:51:00.218Z,20.20
2023-04-08T20:53:27.402Z,19.30
2023-04-08T20:55:54.259Z,23.23
2023-04-08T20:58:21.621Z,21.47
2023-04-08T21:00:48.515Z,21.70
2023-04-08T21:03:15.473Z,21.60
2023-04-08T21:05:42.443Z,24.17
2023-04-08T21:08:09.589Z,20.27
2023-04-08T21:10:36.330Z,25.80
2023-04-08T21:13:03.084Z,22.03
2023-04-08T21:15:30.059Z,27.37
2023-04-08T21:17:56.852Z,22.97
2023-04-08T21:20:34.562Z,25.43
2023-04-08T21:23:04.968Z,24.53
2023-04-08T21:25:32.235Z,24.00
2023-04-08T21:27:59.137Z,25.70
2023-04-08T21:30:25.946Z,22.83
2023-04-08T21:32:52.783Z,24.33
2023-04-08T21:35:19.695Z,27.73
2023-04-08T21:37:49.333Z,26.33
2023-04-08T21:40:16.250Z,26.53
2023-04-08T21:42:43.084Z,24.87
2023-04-08T21:45:10.505Z,26.33
2023-04-08T21:47:37.282Z,27.40
2023-04-08T21:50:04.407Z,25.70
2023-04-08T21:52:31.546Z,26.97
2023-04-08T21:54:58.261Z,26.63
2023-04-08T21:57:24.956Z,25.93
2023-04-08T21:59:52.355Z,26.67
2023-04-08T22:02:19.244Z,27.47
2023-04-08T22:04:46.153Z,28.70
2023-04-08T22:07:15.772Z,26.03
2023-04-08T22:09:42.491Z,25.53
2023-04-08T22:12:10.001Z,27.67
2023-04-08T22:14:45.663Z,26.53
2023-04-08T22:17:12.622Z,26.23
2023-04-08T22:19:39.544Z,25.63
2023-04-08T22:22:06.940Z,27.20
2023-04-08T22:24:33.751Z,26.70
2023-04-08T22:27:01.106Z,29.90
2023-04-08T22:29:27.864Z,29.50
2023-04-08T22:31:54.612Z,26.57
2023-04-08T22:34:21.397Z,30.30
2023-04-08T22:36:51.613Z,28.00
2023-04-08T22:39:21.502Z,26.23
2023-04-08T22:41:48.305Z,26.77
2023-04-08T22:44:15.759Z,30.07
2023-04-08T22:46:42.523Z,27.13
2023-04-08T22:49:09.309Z,26.83
2023-04-08T22:51:36.253Z,28.47
2023-04-08T22:54:03.071Z,27.53
2023-04-08T22:56:30.787Z,27.90
2023-04-08T22:58:57.604Z,30.97
2023-04-08T23:01:27.336Z,29.20
2023-04-08T23:03:54.115Z,29.70
2023-04-08T23:06:20.920Z,30.93
2023-04-08T23:08:47.621Z,30.43
2023-04-08T23:11:14.501Z,29.87
2023-04-08T23:13:41.530Z,33.23
2023-04-08T23:16:09.851Z,30.17
2023-04-08T23:18:36.677Z,33.17
2023-04-08T23:21:03.937Z,29.00
2023-04-08T23:23:32.796Z,32.10
2023-04-08T23:25:59.501Z,31.00
2023-04-08T23:28:26.451Z,29.43
2023-04-08T23:30:58.358Z,31.77
2023-04-08T23:33:25.314Z,27.10
2023-04-08T23:35:52.047Z,30.10
2023-04-08T23:38:18.790Z,27.17
2023-04-08T23:40:45.647Z,28.37
2023-04-08T23:43:12.368Z,27.93
2023-04-08T23:45:39.205Z,29.50
2023-04-08T23:48:10.313Z,28.73
2023-04-08T23:50:37.344Z,28.43
2023-04-08T23:53:04.061Z,30.57
2023-04-08T23:55:30.762Z,26.93
2023-04-08T23:57:57.490Z,27.40
